createdAt,value
2023-02-28T00:01:11.356Z,1.73
2023-02-28T00:03:39.171Z,2.33
2023-02-28T00:06:09.866Z,2.20
2023-02-28T00:08:39.017Z,2.80
2023-02-28T00:11:09.085Z,2.37
2023-02-28T00:13:38.829Z,2.57
2023-02-28T00:16:09.364Z,2.23
2023-02-28T00:18:37.584Z,2.00
2023-02-28T00:21:06.207Z,2.00
2023-02-28T00:23:34.252Z,2.50
2023-02-28T00:26:03.464Z,2.17
2023-02-28T00:28:31.439Z,2.27
2023-02-28T00:31:00.974Z,2.70
2023-02-28T00:33:28.995Z,2.90
2023-02-28T00:36:04.817Z,2.40
2023-02-28T00:38:32.617Z,2.33
2023-02-28T00:41:05.374Z,3.47
2023-02-28T00:43:36.115Z,2.20
2023-02-28T00:46:04.252Z,2.47
2023-02-28T00:48:32.885Z,2.73
2023-02-28T00:51:00.878Z,2.97
2023-02-28T00:53:28.567Z,3.00
2023-02-28T00:55:56.270Z,3.10
2023-02-28T00:58:23.958Z,3.20
2023-02-28T01:00:53.739Z,3.10
2023-02-28T01:03:23.395Z,2.80
2023-02-28T01:05:51.240Z,3.10
2023-02-28T01:08:19.058Z,3.10
2023-02-28T01:10:46.740Z,3.13
2023-02-28T01:13:15.582Z,2.90
2023-02-28T01:15:47.412Z,2.70
2023-02-28T01:18:16.499Z,2.80
2023-02-28T01:20:44.213Z,2.90
2023-02-28T01:23:11.935Z,3.73
2023-02-28T01:25:39.992Z,2.90
2023-02-28T01:28:08.306Z,3.10
2023-02-28T01:30:36.725Z,2.83
2023-02-28T01:33:04.573Z,2.70
2023-02-28T01:35:36.102Z,3.60
2023-02-28T01:38:20.572Z,3.40
2023-02-28T01:40:49.244Z,3.57
2023-02-28T01:43:23.025Z,3.30
2023-02-28T01:45:50.818Z,2.70
2023-02-28T01:48:19.692Z,3.20
2023-02-28T01:50:50.246Z,3.40
2023-02-28T01:53:21.451Z,3.07
2023-02-28T01:55:52.038Z,3.13
2023-02-28T01:58:20.299Z,3.23
2023-02-28T02:00:48.861Z,3.20
2023-02-28T02:03:20.873Z,3.07
2023-02-28T02:05:50.257Z,3.17
2023-02-28T02:08:23.568Z,3.63
2023-02-28T02:10:54.997Z,3.73
2023-02-28T02:13:36.185Z,3.03
2023-02-28T02:16:14.004Z,3.60
2023-02-28T02:18:47.152Z,3.37
2023-02-28T02:21:57.101Z,3.30
2023-02-28T02:25:00.825Z,3.30
2023-02-28T02:27:41.356Z,3.27
2023-02-28T02:30:29.247Z,4.00
2023-02-28T02:33:25.080Z,3.40
2023-02-28T02:35:59.296Z,4.00
2023-02-28T02:38:42.119Z,4.20
2023-02-28T02:41:19.155Z,3.70
2023-02-28T02:43:50.360Z,3.77
2023-02-28T02:46:22.389Z,4.40
2023-02-28T02:48:51.642Z,3.70
2023-02-28T02:51:25.286Z,3.53
2023-02-28T02:53:57.766Z,3.20
2023-02-28T02:56:28.577Z,3.47
2023-02-28T02:59:01.077Z,3.77
2023-02-28T03:01:31.543Z,3.70
2023-02-28T03:04:03.339Z,3.67
2023-02-28T03:06:33.634Z,4.10
2023-02-28T03:09:03.171Z,4.37
2023-02-28T03:11:31.940Z,3.87
2023-02-28T03:14:32.718Z,4.20
2023-02-28T03:17:16.187Z,3.93
2023-02-28T03:19:53.818Z,4.30
2023-02-28T03:22:36.718Z,4.60
2023-02-28T03:25:09.521Z,4.73
2023-02-28T03:27:42.513Z,5.00
2023-02-28T03:30:18.016Z,4.60
2023-02-28T03:32:55.088Z,4.73
2023-02-28T03:35:25.600Z,4.77
2023-02-28T03:38:03.216Z,5.07
2023-02-28T03:40:35.314Z,5.57
2023-02-28T03:43:06.858Z,4.70
2023-02-28T03:45:37.714Z,4.70
2023-02-28T03:48:11.925Z,5.23
2023-02-28T03:50:42.399Z,5.43
2023-02-28T03:53:16.193Z,5.40
2023-02-28T03:55:46.688Z,5.60
2023-02-28T03:58:21.611Z,5.50
2023-02-28T04:00:54.622Z,5.13
2023-02-28T04:03:22.263Z,5.43
2023-02-28T04:05:53.328Z,5.83
2023-02-28T04:08:23.652Z,6.33
2023-02-28T04:10:58.755Z,5.93
2023-02-28T04:13:26.381Z,5.10
2023-02-28T04:15:54.080Z,5.83
2023-02-28T04:18:21.771Z,5.17
2023-02-28T04:20:49.486Z,6.03
2023-02-28T04:23:17.121Z,5.20
2023-02-28T04:25:46.099Z,5.27
2023-02-28T04:28:13.773Z,6.50
2023-02-28T04:30:41.582Z,6.07
2023-02-28T04:33:09.391Z,5.67
2023-02-28T04:35:37.100Z,5.60
2023-02-28T04:38:04.826Z,6.00
2023-02-28T04:40:32.474Z,5.93
2023-02-28T04:43:01.487Z,5.93
2023-02-28T04:45:31.117Z,5.33
2023-02-28T04:47:58.811Z,5.63
2023-02-28T04:50:26.509Z,5.20
2023-02-28T04:52:54.144Z,6.10
2023-02-28T04:55:21.844Z,5.73
2023-02-28T04:57:49.528Z,5.83
2023-02-28T05:00:19.387Z,5.30
2023-02-28T05:02:47.040Z,5.20
2023-02-28T05:05:19.044Z,5.97
2023-02-28T05:07:46.991Z,5.73
2023-02-28T05:10:14.626Z,6.00
2023-02-28T05:12:42.521Z,5.60
2023-02-28T05:15:14.390Z,5.37
2023-02-28T05:17:43.598Z,5.90
2023-02-28T05:20:15.679Z,6.20
2023-02-28T05:22:44.175Z,6.37
2023-02-28T05:25:14.474Z,5.50
2023-02-28T05:27:42.121Z,5.73
2023-02-28T05:30:13.262Z,6.00
2023-02-28T05:32:43.741Z,6.20
2023-02-28T05:35:13.291Z,6.27
2023-02-28T05:37:41.449Z,6.10
2023-02-28T05:40:11.238Z,6.77
2023-02-28T05:42:39.336Z,6.20
2023-02-28T05:45:08.917Z,5.57
2023-02-28T05:47:37.255Z,6.87
2023-02-28T05:50:05.644Z,6.37
2023-02-28T05:52:34.635Z,5.80
2023-02-28T05:55:02.263Z,5.87
2023-02-28T05:57:30.213Z,5.70
2023-02-28T05:59:58.121Z,6.03
2023-02-28T06:02:26.221Z,5.70
2023-02-28T06:04:54.174Z,6.50
2023-02-28T06:07:23.515Z,6.73
2023-02-28T06:09:52.818Z,6.60
2023-02-28T06:12:20.648Z,6.63
2023-02-28T06:14:48.531Z,6.47
2023-02-28T06:17:16.372Z,5.90
2023-02-28T06:19:44.391Z,6.03
2023-02-28T06:22:12.039Z,5.97
2023-02-28T06:24:39.705Z,5.70
2023-02-28T06:27:08.685Z,5.93
2023-02-28T06:29:37.158Z,6.67
2023-02-28T06:32:04.971Z,6.37
2023-02-28T06:34:32.774Z,6.33
2023-02-28T06:37:03.108Z,6.70
2023-02-28T06:39:30.909Z,7.20
2023-02-28T06:41:58.847Z,7.60
2023-02-28T06:44:27.942Z,6.87
2023-02-28T06:46:55.658Z,6.40
2023-02-28T06:49:23.423Z,6.63
2023-02-28T06:51:51.123Z,6.97
2023-02-28T06:54:19.026Z,6.27
2023-02-28T06:56:47.795Z,6.33
2023-02-28T06:59:15.509Z,6.97
2023-02-28T07:01:45.051Z,6.73
2023-02-28T07:04:14.133Z,6.17
2023-02-28T07:06:41.943Z,6.73
2023-02-28T07:09:11.636Z,6.00
2023-02-28T07:11:39.486Z,6.70
2023-02-28T07:14:07.182Z,6.23
2023-02-28T07:16:35.147Z,6.53
2023-02-28T07:19:04.252Z,6.57
2023-02-28T07:21:32.169Z,6.40
2023-02-28T07:24:00.155Z,6.40
2023-02-28T07:26:27.929Z,6.00
2023-02-28T07:28:55.642Z,6.10
2023-02-28T07:31:23.564Z,6.93
2023-02-28T07:33:51.414Z,6.93
2023-02-28T07:36:20.635Z,7.13
2023-02-28T07:38:50.961Z,6.83
2023-02-28T07:41:20.082Z,6.50
2023-02-28T07:43:48.411Z,7.17
2023-02-28T07:46:19.115Z,7.13
2023-02-28T07:48:47.170Z,6.70
2023-02-28T07:51:15.083Z,6.67
2023-02-28T07:53:44.276Z,7.80
2023-02-28T07:56:12.538Z,7.07
2023-02-28T07:58:40.242Z,6.33
2023-02-28T08:01:09.097Z,6.87
2023-02-28T08:03:37.676Z,6.63
2023-02-28T08:06:06.131Z,7.43
2023-02-28T08:08:34.183Z,6.67
2023-02-28T08:11:04.727Z,7.00
2023-02-28T08:13:32.629Z,6.20
2023-02-28T08:16:00.540Z,7.70
2023-02-28T08:18:28.186Z,5.90
2023-02-28T08:20:55.874Z,5.57
2023-02-28T08:23:23.582Z,5.67
2023-02-28T08:25:55.713Z,6.10
2023-02-28T08:28:27.128Z,6.20
2023-02-28T08:30:55.730Z,5.60
2023-02-28T08:33:23.840Z,5.80
2023-02-28T08:35:55.709Z,5.83
2023-02-28T08:38:23.830Z,6.17
2023-02-28T08:40:51.689Z,5.87
2023-02-28T08:43:19.385Z,6.40
2023-02-28T08:45:48.435Z,6.43
2023-02-28T08:48:18.096Z,6.17
2023-02-28T08:50:55.783Z,5.63
2023-02-28T08:53:33.096Z,6.30
2023-02-28T08:56:01.677Z,6.80
2023-02-28T08:58:29.745Z,7.10
2023-02-28T09:00:59.172Z,7.23
2023-02-28T09:03:27.938Z,6.60
2023-02-28T09:06:00.719Z,7.07
2023-02-28T09:08:31.195Z,6.93
2023-02-28T09:11:00.656Z,7.50
2023-02-28T09:13:29.654Z,6.53
2023-02-28T09:15:59.584Z,7.13
2023-02-28T09:18:27.887Z,6.73
2023-02-28T09:20:56.044Z,6.47
2023-02-28T09:23:24.017Z,6.50
2023-02-28T09:25:54.088Z,6.80
2023-02-28T09:28:22.891Z,6.90
2023-02-28T09:30:52.001Z,6.67
2023-02-28T09:33:22.136Z,7.40
2023-02-28T09:35:50.492Z,6.50
2023-02-28T09:38:19.444Z,6.33
2023-02-28T09:40:52.730Z,6.07
2023-02-28T09:43:23.954Z,6.40
2023-02-28T09:45:59.613Z,5.90
2023-02-28T09:48:33.800Z,6.20
2023-02-28T09:51:04.931Z,6.03
2023-02-28T09:53:35.110Z,6.43
2023-02-28T09:56:06.436Z,6.20
2023-02-28T09:58:40.449Z,5.93
2023-02-28T10:01:14.246Z,6.13
2023-02-28T10:03:48.312Z,6.27
2023-02-28T10:06:19.879Z,6.40
2023-02-28T10:08:58.510Z,5.80
2023-02-28T10:11:28.399Z,5.57
2023-02-28T10:14:02.546Z,5.37
2023-02-28T10:16:35.683Z,5.53
2023-02-28T10:19:08.996Z,4.70
2023-02-28T10:21:40.842Z,5.17
2023-02-28T10:24:22.067Z,4.60
2023-02-28T10:26:50.186Z,4.93
2023-02-28T10:29:18.138Z,4.90
2023-02-28T10:31:45.955Z,5.00
2023-02-28T10:34:15.598Z,5.20
2023-02-28T10:36:45.137Z,4.90
2023-02-28T10:39:38.677Z,4.67
2023-02-28T10:42:06.633Z,5.30
2023-02-28T10:44:34.377Z,5.30
2023-02-28T10:47:02.266Z,4.40
2023-02-28T10:49:31.653Z,4.40
2023-02-28T10:52:01.687Z,4.47
2023-02-28T10:54:32.696Z,5.20
2023-02-28T10:57:16.928Z,4.80
2023-02-28T10:59:45.261Z,5.03
2023-02-28T11:05:27.872Z,5.00
2023-02-28T11:07:57.562Z,4.53
2023-02-28T11:10:28.701Z,5.10
2023-02-28T11:13:00.541Z,5.10
2023-02-28T11:15:31.861Z,4.83
2023-02-28T11:18:02.558Z,4.83
2023-02-28T11:20:34.309Z,5.30
2023-02-28T11:23:04.517Z,4.87
2023-02-28T11:25:34.672Z,4.87
2023-02-28T11:28:05.638Z,4.33
2023-02-28T11:30:36.922Z,4.80
2023-02-28T11:33:23.546Z,4.13
2023-02-28T11:35:54.642Z,5.37
2023-02-28T11:38:22.393Z,5.03
2023-02-28T11:41:04.747Z,4.87
2023-02-28T11:44:00.985Z,5.87
2023-02-28T11:46:35.804Z,5.10
2023-02-28T11:49:15.198Z,5.17
2023-02-28T11:51:51.027Z,4.50
2023-02-28T11:54:37.497Z,5.50
2023-02-28T11:57:18.036Z,5.57
2023-02-28T11:59:58.788Z,5.43
2023-02-28T12:02:30.549Z,5.10
2023-02-28T12:05:16.226Z,4.97
2023-02-28T12:07:58.424Z,5.10
2023-02-28T12:10:28.634Z,5.40
2023-02-28T12:13:13.988Z,4.63
2023-02-28T12:16:20.139Z,4.47
2023-02-28T12:19:01.920Z,4.83
2023-02-28T12:21:42.392Z,5.30
2023-02-28T12:24:42.498Z,4.77
2023-02-28T12:27:14.704Z,4.47
2023-02-28T12:29:49.953Z,4.43
2023-02-28T12:32:23.741Z,4.87
2023-02-28T12:34:57.034Z,5.13
2023-02-28T12:37:31.610Z,4.80
2023-02-28T12:40:07.509Z,4.67
2023-02-28T12:42:41.837Z,5.13
2023-02-28T12:45:14.768Z,4.57
2023-02-28T12:47:46.830Z,4.77
2023-02-28T12:50:15.626Z,4.60
2023-02-28T12:52:55.014Z,4.93
2023-02-28T12:55:31.950Z,5.40
2023-02-28T12:58:10.437Z,5.13
2023-02-28T13:00:45.828Z,4.90
2023-02-28T13:03:39.250Z,5.00
2023-02-28T13:06:51.508Z,4.80
2023-02-28T13:09:20.493Z,5.40
2023-02-28T13:11:52.013Z,5.40
2023-02-28T13:14:27.417Z,5.30
2023-02-28T13:17:04.757Z,5.03
2023-02-28T13:19:35.588Z,5.13
2023-02-28T13:22:04.973Z,6.00
2023-02-28T13:24:43.280Z,5.20
2023-02-28T13:27:41.418Z,5.13
2023-02-28T13:30:46.501Z,6.03
2023-02-28T13:33:25.186Z,6.17
2023-02-28T13:36:10.052Z,6.50
2023-02-28T13:38:43.000Z,6.07
2023-02-28T13:41:48.636Z,6.73
2023-02-28T13:44:20.212Z,6.47
2023-02-28T13:47:24.021Z,7.20
2023-02-28T13:49:53.452Z,6.93
2023-02-28T13:52:25.517Z,6.60
2023-02-28T13:55:20.004Z,6.37
2023-02-28T13:58:05.573Z,6.13
2023-02-28T14:00:46.001Z,6.73
2023-02-28T14:03:30.841Z,6.63
2023-02-28T14:06:20.083Z,6.53
2023-02-28T14:08:55.995Z,6.33
2023-02-28T14:11:30.183Z,6.53
2023-02-28T14:13:57.928Z,5.97
2023-02-28T14:16:30.997Z,6.30
2023-02-28T14:19:02.595Z,6.63
2023-02-28T14:21:32.988Z,6.50
2023-02-28T14:24:34.545Z,6.97
2023-02-28T14:27:13.860Z,6.77
2023-02-28T14:30:22.348Z,5.63
2023-02-28T14:32:56.619Z,6.63
2023-02-28T14:35:45.597Z,6.47
2023-02-28T14:38:19.955Z,7.10
2023-02-28T14:40:49.780Z,6.27
2023-02-28T14:43:23.754Z,6.40
2023-02-28T14:45:53.538Z,6.30
2023-02-28T14:48:26.068Z,6.73
2023-02-28T14:50:55.986Z,6.93
2023-02-28T14:53:26.982Z,6.77
2023-02-28T14:55:55.003Z,6.47
2023-02-28T14:58:27.116Z,6.63
2023-02-28T15:00:56.967Z,6.57
2023-02-28T15:03:32.744Z,7.37
2023-02-28T15:06:02.162Z,7.60
2023-02-28T15:08:32.777Z,19.13
2023-02-28T15:11:03.918Z,7.33
2023-02-28T15:13:38.673Z,7.17
2023-02-28T15:16:12.119Z,6.93
2023-02-28T15:18:49.080Z,7.10
2023-02-28T15:21:20.227Z,7.83
2023-02-28T15:23:51.631Z,7.07
2023-02-28T15:26:22.914Z,7.17
2023-02-28T15:28:53.333Z,7.20
2023-02-28T15:31:25.518Z,6.97
2023-02-28T15:33:59.246Z,7.10
2023-02-28T15:36:29.791Z,8.03
2023-02-28T15:39:10.528Z,7.77
2023-02-28T15:41:43.320Z,6.90
2023-02-28T15:44:28.026Z,6.83
2023-02-28T15:46:59.430Z,7.33
2023-02-28T15:49:29.997Z,7.00
2023-02-28T15:52:01.601Z,7.00
2023-02-28T15:54:32.601Z,6.87
2023-02-28T15:57:07.223Z,7.40
2023-02-28T15:59:34.943Z,7.13
2023-02-28T16:02:16.680Z,6.57
2023-02-28T16:05:00.245Z,7.60
2023-02-28T16:07:28.510Z,7.13
2023-02-28T16:09:56.747Z,6.90
2023-02-28T16:12:28.738Z,6.90
2023-02-28T16:14:58.792Z,7.23
2023-02-28T16:17:28.766Z,8.27
2023-02-28T16:19:59.077Z,7.70
2023-02-28T16:22:27.117Z,8.53
2023-02-28T16:24:54.855Z,7.70
2023-02-28T16:27:27.028Z,7.30
2023-02-28T16:29:55.499Z,7.70
2023-02-28T16:32:23.256Z,7.13
2023-02-28T16:34:50.948Z,8.03
2023-02-28T16:37:20.434Z,7.33
2023-02-28T16:39:49.761Z,8.33
2023-02-28T16:42:30.426Z,8.17
2023-02-28T16:44:58.878Z,8.27
2023-02-28T16:47:27.657Z,7.50
2023-02-28T16:49:55.309Z,8.20
2023-02-28T16:52:24.332Z,8.13
2023-02-28T16:54:52.033Z,8.27
2023-02-28T16:57:23.992Z,7.57
2023-02-28T16:59:52.448Z,7.90
2023-02-28T17:02:21.651Z,7.67
2023-02-28T17:04:49.632Z,7.50
2023-02-28T17:07:18.586Z,7.70
2023-02-28T17:09:47.961Z,7.47
2023-02-28T17:12:15.622Z,7.60
2023-02-28T17:14:43.358Z,8.60
2023-02-28T17:17:18.285Z,9.23
2023-02-28T17:19:46.396Z,7.97
2023-02-28T17:22:14.482Z,8.03
2023-02-28T17:24:42.171Z,8.87
2023-02-28T17:27:14.269Z,8.53
2023-02-28T17:29:42.668Z,8.53
2023-02-28T17:32:17.900Z,8.63
2023-02-28T17:34:46.891Z,8.80
2023-02-28T17:37:14.924Z,8.80
2023-02-28T17:39:42.582Z,8.10
2023-02-28T17:42:10.233Z,8.50
2023-02-28T17:44:39.603Z,8.97
2023-02-28T17:47:07.350Z,9.63
2023-02-28T17:49:35.173Z,9.30
2023-02-28T17:52:02.815Z,8.97
2023-02-28T17:54:30.457Z,8.93
2023-02-28T17:56:58.073Z,9.33
2023-02-28T17:59:26.493Z,8.63
2023-02-28T18:01:55.524Z,9.10
2023-02-28T18:04:23.134Z,8.83
2023-02-28T18:06:52.323Z,8.87
2023-02-28T18:09:22.620Z,7.53
2023-02-28T18:11:51.033Z,8.37
2023-02-28T18:14:20.131Z,8.17
2023-02-28T18:16:47.904Z,8.83
2023-02-28T18:19:17.625Z,10.27
2023-02-28T18:21:46.474Z,9.30
2023-02-28T18:24:14.559Z,10.23
2023-02-28T18:26:43.537Z,9.73
2023-02-28T18:29:17.972Z,9.90
2023-02-28T18:31:45.706Z,10.47
2023-02-28T18:34:13.470Z,10.10
2023-02-28T18:36:42.967Z,10.37
2023-02-28T18:39:12.018Z,11.40
2023-02-28T18:41:40.188Z,10.73
2023-02-28T18:44:18.909Z,11.47
2023-02-28T18:46:47.093Z,11.20
2023-02-28T18:49:14.885Z,11.20
2023-02-28T18:51:45.412Z,10.87
2023-02-28T18:54:13.505Z,10.97
2023-02-28T18:56:41.274Z,12.33
2023-02-28T18:59:09.065Z,11.60
2023-02-28T19:01:36.785Z,11.13
2023-02-28T19:04:06.496Z,11.97
2023-02-28T19:06:35.333Z,12.00
2023-02-28T19:09:05.171Z,11.93
2023-02-28T19:11:35.650Z,11.33
2023-02-28T19:14:04.154Z,11.27
2023-02-28T19:16:32.453Z,11.80
2023-02-28T19:19:00.496Z,12.43
2023-02-28T19:21:28.346Z,11.10
2023-02-28T19:23:56.035Z,12.10
2023-02-28T19:26:26.967Z,11.30
2023-02-28T19:28:54.683Z,10.63
2023-02-28T19:31:24.376Z,11.93
2023-02-28T19:33:53.150Z,11.80
2023-02-28T19:36:21.627Z,11.63
2023-02-28T19:38:49.346Z,11.83
2023-02-28T19:41:18.775Z,11.80
2023-02-28T19:43:48.286Z,11.83
2023-02-28T19:46:16.216Z,12.57
2023-02-28T19:48:44.943Z,12.17
2023-02-28T19:51:14.733Z,13.13
2023-02-28T19:53:43.700Z,12.30
2023-02-28T19:56:12.298Z,12.63
2023-02-28T19:58:40.785Z,12.90
2023-02-28T20:01:12.396Z,12.27
2023-02-28T20:03:40.773Z,11.53
2023-02-28T20:06:11.120Z,12.60
2023-02-28T20:08:39.502Z,12.63
2023-02-28T20:11:08.945Z,12.33
2023-02-28T20:13:37.151Z,11.90
2023-02-28T20:16:08.917Z,13.07
2023-02-28T20:18:38.553Z,13.30
2023-02-28T20:21:09.072Z,13.20
2023-02-28T20:23:38.846Z,13.07
2023-02-28T20:26:07.009Z,12.17
2023-02-28T20:28:34.736Z,12.20
2023-02-28T20:31:02.748Z,11.57
2023-02-28T20:33:30.547Z,12.90
2023-02-28T20:36:02.008Z,12.47
2023-02-28T20:38:30.103Z,12.77
2023-02-28T20:41:00.322Z,12.83
2023-02-28T20:43:28.822Z,13.70
2023-02-28T20:45:58.289Z,12.63
2023-02-28T20:48:26.721Z,13.20
2023-02-28T20:50:56.122Z,12.70
2023-02-28T20:53:26.717Z,13.33
2023-02-28T20:55:55.517Z,14.13
2023-02-28T20:58:24.722Z,13.83
2023-02-28T21:00:52.678Z,13.13
2023-02-28T21:03:20.413Z,13.43
2023-02-28T21:05:48.206Z,14.07
2023-02-28T21:08:15.942Z,12.83
2023-02-28T21:10:45.019Z,12.50
2023-02-28T21:13:12.728Z,12.93
2023-02-28T21:15:40.439Z,13.63
2023-02-28T21:18:08.186Z,12.70
2023-02-28T21:20:35.899Z,12.70
2023-02-28T21:23:03.660Z,12.17
2023-02-28T21:25:31.703Z,13.07
2023-02-28T21:28:00.794Z,13.10
2023-02-28T21:30:28.658Z,12.57
2023-02-28T21:32:58.347Z,12.23
2023-02-28T21:35:26.598Z,12.47
2023-02-28T21:37:55.099Z,13.30
2023-02-28T21:40:22.802Z,13.43
2023-02-28T21:42:50.563Z,12.63
2023-02-28T21:45:19.706Z,12.73
2023-02-28T21:47:47.436Z,13.40
2023-02-28T21:50:15.332Z,12.60
2023-02-28T21:52:44.988Z,13.03
2023-02-28T21:55:12.783Z,12.13
2023-02-28T21:57:40.725Z,12.63
2023-02-28T22:00:11.087Z,11.73
2023-02-28T22:02:40.199Z,12.93
2023-02-28T22:05:08.110Z,12.87
2023-02-28T22:07:35.757Z,13.03
2023-02-28T22:10:03.847Z,12.43
2023-02-28T22:12:31.709Z,11.60
2023-02-28T22:14:59.518Z,11.23
2023-02-28T22:17:27.280Z,13.37
2023-02-28T22:19:56.364Z,11.70
2023-02-28T22:22:24.053Z,12.03
2023-02-28T22:24:51.708Z,11.77
2023-02-28T22:27:19.378Z,12.23
2023-02-28T22:29:48.002Z,12.70
2023-02-28T22:32:16.505Z,11.90
2023-02-28T22:34:44.270Z,12.60
2023-02-28T22:37:13.332Z,12.67
2023-02-28T22:39:41.196Z,12.47
2023-02-28T22:42:09.718Z,12.80
2023-02-28T22:44:37.569Z,12.13
2023-02-28T22:47:05.395Z,12.93
2023-02-28T22:49:33.070Z,12.90
2023-02-28T22:52:00.698Z,12.53
2023-02-28T22:54:29.787Z,12.40
2023-02-28T22:56:57.539Z,11.90
2023-02-28T22:59:25.205Z,12.60
2023-02-28T23:01:56.126Z,12.40
2023-02-28T23:04:26.908Z,12.53
2023-02-28T23:06:54.633Z,12.37
2023-02-28T23:09:22.300Z,12.13
2023-02-28T23:11:51.943Z,12.33
2023-02-28T23:14:21.451Z,11.93
2023-02-28T23:16:50.974Z,12.30
2023-02-28T23:19:21.944Z,12.00
2023-02-28T23:21:50.432Z,12.83
2023-02-28T23:24:20.020Z,11.67
2023-02-28T23:26:50.236Z,13.73
2023-02-28T23:29:22.028Z,12.57
2023-02-28T23:31:50.062Z,13.03
2023-02-28T23:34:26.180Z,13.33
2023-02-28T23:36:55.010Z,12.80
2023-02-28T23:39:23.006Z,12.30
2023-02-28T23:41:50.876Z,13.00
2023-02-28T23:44:19.937Z,13.53
2023-02-28T23:46:49.381Z,13.07
2023-02-28T23:49:19.902Z,13.13
2023-02-28T23:51:48.880Z,14.13
2023-02-28T23:54:17.355Z,13.07
2023-02-28T23:56:45.292Z,13.37
2023-02-28T23:59:13.076Z,14.17
